sensor_id;sensor_type;location;lat;lon;timestamp;P1;durP1;ratioP1;P2;durP2;ratioP2
22557;SDS011;11445;53.816;8.902;2022-09-21T00:00:25;4.05;;;2.50;;
22557;SDS011;11445;53.816;8.902;2022-09-21T00:02:54;6.55;;;2.90;;
22557;SDS011;11445;53.816;8.902;2022-09-21T00:05:23;9.52;;;3.03;;
22557;SDS011;11445;53.816;8.902;2022-09-21T00:07:50;6.30;;;2.33;;
22557;SDS011;11445;53.816;8.902;2022-09-21T00:10:18;5.80;;;2.30;;
22557;SDS011;11445;53.816;8.902;2022-09-21T00:12:45;9.27;;;2.38;;
22557;SDS011;11445;53.816;8.902;2022-09-21T00:15:13;4.68;;;2.30;;
22557;SDS011;11445;53.816;8.902;2022-09-21T00:17:42;3.75;;;2.20;;
22557;SDS011;11445;53.816;8.902;2022-09-21T00:20:09;4.15;;;2.30;;
22557;SDS011;11445;53.816;8.902;2022-09-21T00:22:37;4.60;;;2.70;;
22557;SDS011;11445;53.816;8.902;2022-09-21T00:25:06;4.50;;;2.30;;
22557;SDS011;11445;53.816;8.902;2022-09-21T00:27:33;7.05;;;2.20;;
22557;SDS011;11445;53.816;8.902;2022-09-21T00:30:00;6.30;;;3.05;;
22557;SDS011;11445;53.816;8.902;2022-09-21T00:32:29;2.80;;;2.15;;
22557;SDS011;11445;53.816;8.902;2022-09-21T00:34:56;9.05;;;2.78;;
22557;SDS011;11445;53.816;8.902;2022-09-21T00:37:24;7.07;;;2.15;;
22557;SDS011;11445;53.816;8.902;2022-09-21T00:39:54;7.25;;;2.65;;
22557;SDS011;11445;53.816;8.902;2022-09-21T00:42:21;8.77;;;2.50;;
22557;SDS011;11445;53.816;8.902;2022-09-21T00:44:51;5.85;;;2.58;;
22557;SDS011;11445;53.816;8.902;2022-09-21T00:47:20;3.72;;;2.28;;
22557;SDS011;11445;53.816;8.902;2022-09-21T00:49:52;5.35;;;2.22;;
22557;SDS011;11445;53.816;8.902;2022-09-21T00:52:22;8.98;;;2.60;;
22557;SDS011;11445;53.816;8.902;2022-09-21T00:54:52;5.97;;;2.00;;
22557;SDS011;11445;53.816;8.902;2022-09-21T00:57:24;7.50;;;2.35;;
22557;SDS011;11445;53.816;8.902;2022-09-21T00:59:56;4.40;;;2.30;;
22557;SDS011;11445;53.816;8.902;2022-09-21T01:02:26;8.20;;;2.53;;
22557;SDS011;11445;53.816;8.902;2022-09-21T01:04:53;4.90;;;2.42;;
22557;SDS011;11445;53.816;8.902;2022-09-21T01:07:23;5.47;;;2.58;;
22557;SDS011;11445;53.816;8.902;2022-09-21T01:09:56;4.85;;;2.03;;
22557;SDS011;11445;53.816;8.902;2022-09-21T01:12:33;8.40;;;2.40;;
22557;SDS011;11445;53.816;8.902;2022-09-21T01:15:14;6.50;;;2.80;;
22557;SDS011;11445;53.816;8.902;2022-09-21T01:17:50;6.13;;;2.15;;
22557;SDS011;11445;53.816;8.902;2022-09-21T01:23:54;4.63;;;2.00;;
22557;SDS011;11445;53.816;8.902;2022-09-21T01:26:58;8.45;;;2.28;;
22557;SDS011;11445;53.816;8.902;2022-09-21T01:29:51;4.75;;;2.47;;
22557;SDS011;11445;53.816;8.902;2022-09-21T01:32:24;4.25;;;2.22;;
22557;SDS011;11445;53.816;8.902;2022-09-21T01:34:56;6.63;;;2.08;;
22557;SDS011;11445;53.816;8.902;2022-09-21T01:37:28;3.00;;;2.00;;
22557;SDS011;11445;53.816;8.902;2022-09-21T01:40:01;3.70;;;1.88;;
22557;SDS011;11445;53.816;8.902;2022-09-21T01:42:33;4.50;;;2.10;;
22557;SDS011;11445;53.816;8.902;2022-09-21T01:45:04;5.45;;;2.20;;
22557;SDS011;11445;53.816;8.902;2022-09-21T01:47:34;3.42;;;1.73;;
22557;SDS011;11445;53.816;8.902;2022-09-21T01:50:04;3.78;;;1.90;;
22557;SDS011;11445;53.816;8.902;2022-09-21T01:52:35;2.85;;;1.88;;
22557;SDS011;11445;53.816;8.902;2022-09-21T01:55:06;3.35;;;1.60;;
22557;SDS011;11445;53.816;8.902;2022-09-21T01:57:39;3.25;;;2.38;;
22557;SDS011;11445;53.816;8.902;2022-09-21T02:00:13;4.60;;;2.28;;
22557;SDS011;11445;53.816;8.902;2022-09-21T02:02:42;3.85;;;2.17;;
22557;SDS011;11445;53.816;8.902;2022-09-21T02:05:14;6.38;;;2.20;;
22557;SDS011;11445;53.816;8.902;2022-09-21T02:07:44;3.53;;;2.03;;
22557;SDS011;11445;53.816;8.902;2022-09-21T02:10:13;4.97;;;2.35;;
22557;SDS011;11445;53.816;8.902;2022-09-21T02:12:45;3.88;;;2.20;;
22557;SDS011;11445;53.816;8.902;2022-09-21T02:15:14;2.92;;;1.88;;
22557;SDS011;11445;53.816;8.902;2022-09-21T02:17:43;3.70;;;2.25;;
22557;SDS011;11445;53.816;8.902;2022-09-21T02:20:22;4.85;;;1.77;;
22557;SDS011;11445;53.816;8.902;2022-09-21T02:22:58;7.85;;;2.55;;
22557;SDS011;11445;53.816;8.902;2022-09-21T02:25:34;5.63;;;1.77;;
22557;SDS011;11445;53.816;8.902;2022-09-21T02:28:08;6.30;;;2.08;;
22557;SDS011;11445;53.816;8.902;2022-09-21T02:30:43;8.02;;;2.30;;
22557;SDS011;11445;53.816;8.902;2022-09-21T02:33:22;2.58;;;1.85;;
22557;SDS011;11445;53.816;8.902;2022-09-21T02:35:54;5.45;;;1.70;;
22557;SDS011;11445;53.816;8.902;2022-09-21T02:38:29;3.42;;;1.80;;
22557;SDS011;11445;53.816;8.902;2022-09-21T02:41:03;4.40;;;2.13;;
22557;SDS011;11445;53.816;8.902;2022-09-21T02:43:33;3.90;;;1.67;;
22557;SDS011;11445;53.816;8.902;2022-09-21T02:46:08;1.98;;;1.67;;
22557;SDS011;11445;53.816;8.902;2022-09-21T02:48:40;7.00;;;2.47;;
22557;SDS011;11445;53.816;8.902;2022-09-21T02:51:13;6.53;;;2.40;;
22557;SDS011;11445;53.816;8.902;2022-09-21T02:53:43;3.13;;;2.20;;
22557;SDS011;11445;53.816;8.902;2022-09-21T02:56:13;3.22;;;2.10;;
22557;SDS011;11445;53.816;8.902;2022-09-21T02:58:42;2.10;;;1.73;;
22557;SDS011;11445;53.816;8.902;2022-09-21T03:01:13;4.25;;;2.10;;
22557;SDS011;11445;53.816;8.902;2022-09-21T03:03:41;3.38;;;2.00;;
22557;SDS011;11445;53.816;8.902;2022-09-21T03:06:09;4.32;;;1.95;;
22557;SDS011;11445;53.816;8.902;2022-09-21T03:08:36;5.05;;;2.10;;
22557;SDS011;11445;53.816;8.902;2022-09-21T03:11:03;4.00;;;2.00;;
22557;SDS011;11445;53.816;8.902;2022-09-21T03:13:30;9.52;;;2.50;;
22557;SDS011;11445;53.816;8.902;2022-09-21T03:15:58;2.47;;;1.77;;
22557;SDS011;11445;53.816;8.902;2022-09-21T03:18:28;6.85;;;2.10;;
22557;SDS011;11445;53.816;8.902;2022-09-21T03:20:57;9.80;;;2.08;;
22557;SDS011;11445;53.816;8.902;2022-09-21T03:23:24;4.10;;;2.00;;
22557;SDS011;11445;53.816;8.902;2022-09-21T03:25:51;5.40;;;2.03;;
22557;SDS011;11445;53.816;8.902;2022-09-21T03:28:18;5.15;;;2.42;;
22557;SDS011;11445;53.816;8.902;2022-09-21T03:30:46;4.55;;;2.40;;
22557;SDS011;11445;53.816;8.902;2022-09-21T03:33:14;3.20;;;2.20;;
22557;SDS011;11445;53.816;8.902;2022-09-21T03:35:43;2.83;;;1.90;;
22557;SDS011;11445;53.816;8.902;2022-09-21T03:38:10;2.10;;;2.00;;
22557;SDS011;11445;53.816;8.902;2022-09-21T03:40:37;5.22;;;1.77;;
22557;SDS011;11445;53.816;8.902;2022-09-21T03:43:04;2.42;;;2.00;;
22557;SDS011;11445;53.816;8.902;2022-09-21T03:45:31;2.83;;;1.95;;
22557;SDS011;11445;53.816;8.902;2022-09-21T03:47:58;8.88;;;2.22;;
22557;SDS011;11445;53.816;8.902;2022-09-21T03:50:27;2.83;;;2.08;;
22557;SDS011;11445;53.816;8.902;2022-09-21T03:52:55;3.70;;;1.73;;
22557;SDS011;11445;53.816;8.902;2022-09-21T03:55:23;2.78;;;1.67;;
22557;SDS011;11445;53.816;8.902;2022-09-21T03:57:50;1.90;;;1.55;;
22557;SDS011;11445;53.816;8.902;2022-09-21T04:00:17;2.60;;;1.75;;
22557;SDS011;11445;53.816;8.902;2022-09-21T04:02:44;3.10;;;1.90;;
22557;SDS011;11445;53.816;8.902;2022-09-21T04:05:12;3.53;;;1.92;;
22557;SDS011;11445;53.816;8.902;2022-09-21T04:07:41;4.07;;;2.05;;
22557;SDS011;11445;53.816;8.902;2022-09-21T04:10:12;2.55;;;1.88;;
22557;SDS011;11445;53.816;8.902;2022-09-21T04:12:40;3.65;;;1.90;;
22557;SDS011;11445;53.816;8.902;2022-09-21T04:15:08;8.20;;;2.05;;
22557;SDS011;11445;53.816;8.902;2022-09-21T04:17:36;2.45;;;1.80;;
22557;SDS011;11445;53.816;8.902;2022-09-21T04:20:03;2.97;;;1.80;;
22557;SDS011;11445;53.816;8.902;2022-09-21T04:22:31;3.40;;;1.80;;
22557;SDS011;11445;53.816;8.902;2022-09-21T04:24:59;3.45;;;1.70;;
22557;SDS011;11445;53.816;8.902;2022-09-21T04:27:27;5.80;;;1.80;;
22557;SDS011;11445;53.816;8.902;2022-09-21T04:29:54;4.50;;;1.55;;
22557;SDS011;11445;53.816;8.902;2022-09-21T04:32:21;2.45;;;1.63;;
22557;SDS011;11445;53.816;8.902;2022-09-21T04:34:48;2.22;;;1.40;;
22557;SDS011;11445;53.816;8.902;2022-09-21T04:37:15;5.70;;;1.80;;
22557;SDS011;11445;53.816;8.902;2022-09-21T04:39:42;3.88;;;2.00;;
22557;SDS011;11445;53.816;8.902;2022-09-21T04:42:09;8.00;;;1.80;;
22557;SDS011;11445;53.816;8.902;2022-09-21T04:44:38;2.25;;;1.58;;
22557;SDS011;11445;53.816;8.902;2022-09-21T04:47:05;7.10;;;1.40;;
22557;SDS011;11445;53.816;8.902;2022-09-21T04:49:32;3.97;;;1.50;;
22557;SDS011;11445;53.816;8.902;2022-09-21T04:51:59;5.47;;;1.30;;
22557;SDS011;11445;53.816;8.902;2022-09-21T04:54:27;2.58;;;1.40;;
22557;SDS011;11445;53.816;8.902;2022-09-21T04:56:54;2.67;;;1.58;;
22557;SDS011;11445;53.816;8.902;2022-09-21T04:59:21;2.80;;;1.70;;
22557;SDS011;11445;53.816;8.902;2022-09-21T05:01:49;6.43;;;1.92;;
22557;SDS011;11445;53.816;8.902;2022-09-21T05:04:16;6.70;;;3.20;;
22557;SDS011;11445;53.816;8.902;2022-09-21T05:06:43;5.20;;;2.00;;
22557;SDS011;11445;53.816;8.902;2022-09-21T05:09:10;4.03;;;2.05;;
22557;SDS011;11445;53.816;8.902;2022-09-21T05:12:00;3.75;;;2.33;;
22557;SDS011;11445;53.816;8.902;2022-09-21T05:14:28;5.13;;;2.03;;
22557;SDS011;11445;53.816;8.902;2022-09-21T05:16:56;5.70;;;2.05;;
22557;SDS011;11445;53.816;8.902;2022-09-21T05:19:23;6.70;;;2.50;;
22557;SDS011;11445;53.816;8.902;2022-09-21T05:21:50;2.30;;;1.92;;
22557;SDS011;11445;53.816;8.902;2022-09-21T05:24:17;3.42;;;2.75;;
22557;SDS011;11445;53.816;8.902;2022-09-21T05:26:44;4.28;;;2.65;;
22557;SDS011;11445;53.816;8.902;2022-09-21T05:29:11;10.05;;;3.13;;
22557;SDS011;11445;53.816;8.902;2022-09-21T05:31:40;4.18;;;3.28;;
22557;SDS011;11445;53.816;8.902;2022-09-21T05:34:16;6.88;;;3.35;;
22557;SDS011;11445;53.816;8.902;2022-09-21T05:36:55;6.60;;;3.70;;
22557;SDS011;11445;53.816;8.902;2022-09-21T05:39:26;11.40;;;3.80;;
22557;SDS011;11445;53.816;8.902;2022-09-21T05:41:54;13.32;;;3.80;;
22557;SDS011;11445;53.816;8.902;2022-09-21T05:44:21;5.57;;;4.10;;
22557;SDS011;11445;53.816;8.902;2022-09-21T05:46:49;4.05;;;3.35;;
22557;SDS011;11445;53.816;8.902;2022-09-21T05:49:27;8.10;;;3.80;;
22557;SDS011;11445;53.816;8.902;2022-09-21T05:52:08;6.07;;;3.45;;
22557;SDS011;11445;53.816;8.902;2022-09-21T05:54:45;4.93;;;3.80;;
22557;SDS011;11445;53.816;8.902;2022-09-21T05:57:22;4.18;;;3.42;;
22557;SDS011;11445;53.816;8.902;2022-09-21T06:00:00;3.85;;;3.35;;
22557;SDS011;11445;53.816;8.902;2022-09-21T06:02:41;3.70;;;3.35;;
22557;SDS011;11445;53.816;8.902;2022-09-21T06:05:17;5.25;;;4.22;;
22557;SDS011;11445;53.816;8.902;2022-09-21T06:07:45;12.65;;;4.97;;
22557;SDS011;11445;53.816;8.902;2022-09-21T06:10:12;17.20;;;3.75;;
22557;SDS011;11445;53.816;8.902;2022-09-21T06:12:39;8.10;;;4.15;;
22557;SDS011;11445;53.816;8.902;2022-09-21T06:15:07;9.05;;;3.72;;
22557;SDS011;11445;53.816;8.902;2022-09-21T06:17:37;15.07;;;3.75;;
22557;SDS011;11445;53.816;8.902;2022-09-21T06:20:05;13.60;;;3.90;;
22557;SDS011;11445;53.816;8.902;2022-09-21T06:22:34;14.07;;;3.90;;
22557;SDS011;11445;53.816;8.902;2022-09-21T06:25:01;11.77;;;3.35;;
22557;SDS011;11445;53.816;8.902;2022-09-21T06:27:29;11.55;;;3.35;;
22557;SDS011;11445;53.816;8.902;2022-09-21T06:29:56;15.48;;;4.35;;
22557;SDS011;11445;53.816;8.902;2022-09-21T06:32:23;15.10;;;4.38;;
22557;SDS011;11445;53.816;8.902;2022-09-21T06:34:50;6.43;;;3.70;;
22557;SDS011;11445;53.816;8.902;2022-09-21T06:37:17;12.63;;;4.63;;
22557;SDS011;11445;53.816;8.902;2022-09-21T06:39:45;14.85;;;4.65;;
22557;SDS011;11445;53.816;8.902;2022-09-21T06:42:12;8.38;;;4.32;;
22557;SDS011;11445;53.816;8.902;2022-09-21T06:44:39;10.77;;;4.55;;
22557;SDS011;11445;53.816;8.902;2022-09-21T06:47:06;8.65;;;5.10;;
22557;SDS011;11445;53.816;8.902;2022-09-21T06:49:34;7.90;;;5.22;;
22557;SDS011;11445;53.816;8.902;2022-09-21T06:52:01;9.13;;;5.35;;
22557;SDS011;11445;53.816;8.902;2022-09-21T06:54:28;9.02;;;5.90;;
22557;SDS011;11445;53.816;8.902;2022-09-21T06:56:57;9.15;;;5.47;;
22557;SDS011;11445;53.816;8.902;2022-09-21T06:59:24;5.28;;;4.55;;
22557;SDS011;11445;53.816;8.902;2022-09-21T07:01:51;7.75;;;4.80;;
22557;SDS011;11445;53.816;8.902;2022-09-21T07:04:21;9.93;;;4.60;;
22557;SDS011;11445;53.816;8.902;2022-09-21T07:06:49;6.13;;;4.55;;
22557;SDS011;11445;53.816;8.902;2022-09-21T07:09:16;8.77;;;3.70;;
22557;SDS011;11445;53.816;8.902;2022-09-21T07:11:44;6.47;;;4.00;;
22557;SDS011;11445;53.816;8.902;2022-09-21T07:14:12;6.68;;;4.90;;
22557;SDS011;11445;53.816;8.902;2022-09-21T07:16:40;9.07;;;4.50;;
22557;SDS011;11445;53.816;8.902;2022-09-21T07:19:07;15.38;;;4.15;;
22557;SDS011;11445;53.816;8.902;2022-09-21T07:21:34;4.30;;;3.03;;
22557;SDS011;11445;53.816;8.902;2022-09-21T07:24:01;4.75;;;3.13;;
22557;SDS011;11445;53.816;8.902;2022-09-21T07:26:29;2.42;;;2.22;;
22557;SDS011;11445;53.816;8.902;2022-09-21T07:28:57;7.38;;;3.88;;
22557;SDS011;11445;53.816;8.902;2022-09-21T07:31:26;3.47;;;3.17;;
22557;SDS011;11445;53.816;8.902;2022-09-21T07:33:55;3.78;;;3.05;;
22557;SDS011;11445;53.816;8.902;2022-09-21T07:36:23;5.05;;;2.75;;
22557;SDS011;11445;53.816;8.902;2022-09-21T07:38:50;10.88;;;4.00;;
22557;SDS011;11445;53.816;8.902;2022-09-21T07:41:18;10.82;;;3.80;;
22557;SDS011;11445;53.816;8.902;2022-09-21T07:43:45;6.70;;;3.70;;
22557;SDS011;11445;53.816;8.902;2022-09-21T07:46:13;5.43;;;3.17;;
22557;SDS011;11445;53.816;8.902;2022-09-21T07:48:42;8.75;;;3.42;;
22557;SDS011;11445;53.816;8.902;2022-09-21T07:51:09;6.22;;;3.47;;
22557;SDS011;11445;53.816;8.902;2022-09-21T07:53:39;10.55;;;3.40;;
22557;SDS011;11445;53.816;8.902;2022-09-21T07:56:07;4.95;;;3.40;;
22557;SDS011;11445;53.816;8.902;2022-09-21T07:58:36;14.88;;;3.40;;
22557;SDS011;11445;53.816;8.902;2022-09-21T08:01:21;6.55;;;2.83;;
22557;SDS011;11445;53.816;8.902;2022-09-21T08:03:50;4.15;;;2.50;;
22557;SDS011;11445;53.816;8.902;2022-09-21T08:06:18;8.60;;;3.63;;
22557;SDS011;11445;53.816;8.902;2022-09-21T08:08:46;5.97;;;2.67;;
22557;SDS011;11445;53.816;8.902;2022-09-21T08:11:14;12.65;;;3.03;;
22557;SDS011;11445;53.816;8.902;2022-09-21T08:13:42;6.38;;;2.53;;
22557;SDS011;11445;53.816;8.902;2022-09-21T08:16:09;11.52;;;2.90;;
22557;SDS011;11445;53.816;8.902;2022-09-21T08:18:37;13.45;;;2.65;;
22557;SDS011;11445;53.816;8.902;2022-09-21T08:21:06;6.35;;;2.65;;
22557;SDS011;11445;53.816;8.902;2022-09-21T08:23:35;4.32;;;2.47;;
22557;SDS011;11445;53.816;8.902;2022-09-21T08:26:05;11.98;;;2.80;;
22557;SDS011;11445;53.816;8.902;2022-09-21T08:28:33;6.72;;;2.13;;
22557;SDS011;11445;53.816;8.902;2022-09-21T08:31:01;11.10;;;2.45;;
22557;SDS011;11445;53.816;8.902;2022-09-21T08:33:29;7.25;;;2.08;;
22557;SDS011;11445;53.816;8.902;2022-09-21T08:35:57;7.38;;;2.00;;
22557;SDS011;11445;53.816;8.902;2022-09-21T08:38:30;10.25;;;2.67;;
22557;SDS011;11445;53.816;8.902;2022-09-21T08:40:58;7.85;;;2.60;;
22557;SDS011;11445;53.816;8.902;2022-09-21T08:43:28;4.57;;;1.83;;
22557;SDS011;11445;53.816;8.902;2022-09-21T08:46:00;7.65;;;1.75;;
22557;SDS011;11445;53.816;8.902;2022-09-21T08:48:31;7.85;;;2.03;;
22557;SDS011;11445;53.816;8.902;2022-09-21T08:51:06;9.57;;;2.45;;
22557;SDS011;11445;53.816;8.902;2022-09-21T08:53:39;11.55;;;1.95;;
22557;SDS011;11445;53.816;8.902;2022-09-21T08:56:09;6.00;;;1.50;;
22557;SDS011;11445;53.816;8.902;2022-09-21T08:58:37;6.68;;;1.70;;
22557;SDS011;11445;53.816;8.902;2022-09-21T09:01:07;9.57;;;2.15;;
22557;SDS011;11445;53.816;8.902;2022-09-21T09:07:12;7.13;;;1.50;;
22557;SDS011;11445;53.816;8.902;2022-09-21T09:09:53;8.38;;;1.88;;
22557;SDS011;11445;53.816;8.902;2022-09-21T09:12:35;3.83;;;1.25;;
22557;SDS011;11445;53.816;8.902;2022-09-21T09:15:14;4.07;;;1.63;;
22557;SDS011;11445;53.816;8.902;2022-09-21T09:18:00;6.50;;;1.42;;
22557;SDS011;11445;53.816;8.902;2022-09-21T09:20:35;3.50;;;1.60;;
22557;SDS011;11445;53.816;8.902;2022-09-21T09:23:05;6.05;;;0.77;;
22557;SDS011;11445;53.816;8.902;2022-09-21T09:25:38;7.00;;;0.93;;
22557;SDS011;11445;53.816;8.902;2022-09-21T09:28:14;4.45;;;0.80;;
22557;SDS011;11445;53.816;8.902;2022-09-21T09:30:47;6.90;;;0.98;;
22557;SDS011;11445;53.816;8.902;2022-09-21T09:33:22;3.97;;;0.73;;
22557;SDS011;11445;53.816;8.902;2022-09-21T09:35:54;3.75;;;0.75;;
22557;SDS011;11445;53.816;8.902;2022-09-21T09:38:28;5.93;;;1.00;;
22557;SDS011;11445;53.816;8.902;2022-09-21T09:41:07;3.28;;;1.02;;
22557;SDS011;11445;53.816;8.902;2022-09-21T09:43:53;10.57;;;1.52;;
22557;SDS011;11445;53.816;8.902;2022-09-21T09:46:32;6.57;;;1.08;;
22557;SDS011;11445;53.816;8.902;2022-09-21T09:51:54;4.82;;;1.17;;
22557;SDS011;11445;53.816;8.902;2022-09-21T09:54:21;6.05;;;1.50;;
22557;SDS011;11445;53.816;8.902;2022-09-21T09:56:53;7.78;;;1.27;;
22557;SDS011;11445;53.816;8.902;2022-09-21T09:59:22;3.20;;;0.85;;
22557;SDS011;11445;53.816;8.902;2022-09-21T10:01:59;3.20;;;1.13;;
22557;SDS011;11445;53.816;8.902;2022-09-21T10:04:27;3.50;;;1.05;;
22557;SDS011;11445;53.816;8.902;2022-09-21T10:06:54;6.15;;;1.27;;
22557;SDS011;11445;53.816;8.902;2022-09-21T10:09:22;9.77;;;1.17;;
22557;SDS011;11445;53.816;8.902;2022-09-21T10:11:53;7.63;;;1.02;;
22557;SDS011;11445;53.816;8.902;2022-09-21T10:14:24;7.10;;;1.10;;
22557;SDS011;11445;53.816;8.902;2022-09-21T10:16:54;4.78;;;1.02;;
22557;SDS011;11445;53.816;8.902;2022-09-21T10:19:25;4.45;;;1.15;;
22557;SDS011;11445;53.816;8.902;2022-09-21T10:21:54;1.13;;;0.60;;
22557;SDS011;11445;53.816;8.902;2022-09-21T10:24:23;9.15;;;1.38;;
22557;SDS011;11445;53.816;8.902;2022-09-21T10:26:55;5.70;;;0.90;;
22557;SDS011;11445;53.816;8.902;2022-09-21T10:29:31;4.57;;;1.15;;
22557;SDS011;11445;53.816;8.902;2022-09-21T10:32:05;5.78;;;1.00;;
22557;SDS011;11445;53.816;8.902;2022-09-21T10:35:00;9.40;;;1.33;;
22557;SDS011;11445;53.816;8.902;2022-09-21T10:37:38;5.82;;;1.10;;
22557;SDS011;11445;53.816;8.902;2022-09-21T10:40:15;4.28;;;1.02;;
22557;SDS011;11445;53.816;8.902;2022-09-21T10:42:51;3.92;;;0.70;;
22557;SDS011;11445;53.816;8.902;2022-09-21T10:45:20;5.32;;;0.70;;
22557;SDS011;11445;53.816;8.902;2022-09-21T10:47:50;5.60;;;0.88;;
22557;SDS011;11445;53.816;8.902;2022-09-21T10:50:22;6.47;;;0.85;;
22557;SDS011;11445;53.816;8.902;2022-09-21T10:52:54;3.55;;;1.10;;
22557;SDS011;11445;53.816;8.902;2022-09-21T10:55:23;5.50;;;0.90;;
22557;SDS011;11445;53.816;8.902;2022-09-21T10:57:53;5.30;;;0.65;;
22557;SDS011;11445;53.816;8.902;2022-09-21T11:00:28;6.38;;;0.85;;
22557;SDS011;11445;53.816;8.902;2022-09-21T11:03:00;2.78;;;0.70;;
22557;SDS011;11445;53.816;8.902;2022-09-21T11:05:52;6.10;;;0.90;;
22557;SDS011;11445;53.816;8.902;2022-09-21T11:08:21;11.10;;;1.02;;
22557;SDS011;11445;53.816;8.902;2022-09-21T11:10:59;6.28;;;1.10;;
22557;SDS011;11445;53.816;8.902;2022-09-21T11:13:37;6.80;;;0.75;;
22557;SDS011;11445;53.816;8.902;2022-09-21T11:16:11;7.40;;;1.05;;
22557;SDS011;11445;53.816;8.902;2022-09-21T11:18:43;6.20;;;0.68;;
22557;SDS011;11445;53.816;8.902;2022-09-21T11:21:19;5.65;;;0.90;;
22557;SDS011;11445;53.816;8.902;2022-09-21T11:23:57;5.03;;;0.93;;
22557;SDS011;11445;53.816;8.902;2022-09-21T11:26:32;8.02;;;1.10;;
22557;SDS011;11445;53.816;8.902;2022-09-21T11:29:08;6.38;;;1.35;;
22557;SDS011;11445;53.816;8.902;2022-09-21T11:31:43;5.55;;;1.00;;
22557;SDS011;11445;53.816;8.902;2022-09-21T11:34:35;6.78;;;1.20;;
22557;SDS011;11445;53.816;8.902;2022-09-21T11:37:17;5.60;;;0.57;;
22557;SDS011;11445;53.816;8.902;2022-09-21T11:39:58;7.70;;;0.90;;
22557;SDS011;11445;53.816;8.902;2022-09-21T11:42:41;9.55;;;1.00;;
22557;SDS011;11445;53.816;8.902;2022-09-21T11:47:58;4.97;;;0.77;;
22557;SDS011;11445;53.816;8.902;2022-09-21T11:50:37;3.95;;;0.60;;
22557;SDS011;11445;53.816;8.902;2022-09-21T11:53:16;3.10;;;0.93;;
22557;SDS011;11445;53.816;8.902;2022-09-21T11:55:57;3.03;;;0.73;;
22557;SDS011;11445;53.816;8.902;2022-09-21T11:58:33;3.80;;;0.68;;
22557;SDS011;11445;53.816;8.902;2022-09-21T12:01:11;9.40;;;0.90;;
22557;SDS011;11445;53.816;8.902;2022-09-21T12:06:39;4.55;;;0.75;;
22557;SDS011;11445;53.816;8.902;2022-09-21T12:09:18;4.50;;;0.90;;
22557;SDS011;11445;53.816;8.902;2022-09-21T12:12:03;6.10;;;0.70;;
22557;SDS011;11445;53.816;8.902;2022-09-21T12:14:36;6.07;;;0.95;;
22557;SDS011;11445;53.816;8.902;2022-09-21T12:17:14;3.90;;;0.93;;
22557;SDS011;11445;53.816;8.902;2022-09-21T12:19:49;3.65;;;0.70;;
22557;SDS011;11445;53.816;8.902;2022-09-21T12:22:25;3.55;;;0.68;;
22557;SDS011;11445;53.816;8.902;2022-09-21T12:24:55;6.43;;;0.70;;
22557;SDS011;11445;53.816;8.902;2022-09-21T12:27:28;4.90;;;0.90;;
22557;SDS011;11445;53.816;8.902;2022-09-21T12:29:59;4.00;;;0.80;;
22557;SDS011;11445;53.816;8.902;2022-09-21T12:32:35;4.68;;;0.80;;
22557;SDS011;11445;53.816;8.902;2022-09-21T12:35:14;12.23;;;1.20;;
22557;SDS011;11445;53.816;8.902;2022-09-21T12:37:44;8.75;;;1.25;;
22557;SDS011;11445;53.816;8.902;2022-09-21T12:40:16;2.92;;;0.60;;
22557;SDS011;11445;53.816;8.902;2022-09-21T12:42:49;3.92;;;0.90;;
22557;SDS011;11445;53.816;8.902;2022-09-21T12:45:26;4.38;;;0.88;;
22557;SDS011;11445;53.816;8.902;2022-09-21T12:48:00;3.17;;;1.00;;
22557;SDS011;11445;53.816;8.902;2022-09-21T12:50:36;2.65;;;0.52;;
22557;SDS011;11445;53.816;8.902;2022-09-21T12:53:08;6.32;;;0.98;;
22557;SDS011;11445;53.816;8.902;2022-09-21T12:55:41;4.10;;;0.90;;
22557;SDS011;11445;53.816;8.902;2022-09-21T12:58:21;3.33;;;0.68;;
22557;SDS011;11445;53.816;8.902;2022-09-21T13:00:59;4.70;;;0.80;;
22557;SDS011;11445;53.816;8.902;2022-09-21T13:03:33;3.38;;;0.70;;
22557;SDS011;11445;53.816;8.902;2022-09-21T13:06:12;3.88;;;0.50;;
22557;SDS011;11445;53.816;8.902;2022-09-21T13:08:53;4.50;;;0.82;;
22557;SDS011;11445;53.816;8.902;2022-09-21T13:11:21;5.43;;;0.80;;
22557;SDS011;11445;53.816;8.902;2022-09-21T13:13:49;2.80;;;0.65;;
22557;SDS011;11445;53.816;8.902;2022-09-21T13:16:23;4.32;;;0.70;;
22557;SDS011;11445;53.816;8.902;2022-09-21T13:18:55;8.33;;;1.13;;
22557;SDS011;11445;53.816;8.902;2022-09-21T13:21:25;8.65;;;1.02;;
22557;SDS011;11445;53.816;8.902;2022-09-21T13:23:55;4.85;;;0.93;;
22557;SDS011;11445;53.816;8.902;2022-09-21T13:26:29;5.85;;;0.70;;
22557;SDS011;11445;53.816;8.902;2022-09-21T13:29:04;5.63;;;0.80;;
22557;SDS011;11445;53.816;8.902;2022-09-21T13:31:52;5.78;;;1.00;;
22557;SDS011;11445;53.816;8.902;2022-09-21T13:34:25;3.20;;;0.73;;
22557;SDS011;11445;53.816;8.902;2022-09-21T13:43:17;2.45;;;0.47;;
22557;SDS011;11445;53.816;8.902;2022-09-21T13:45:59;4.57;;;0.77;;
22557;SDS011;11445;53.816;8.902;2022-09-21T13:48:27;3.28;;;0.55;;
22557;SDS011;11445;53.816;8.902;2022-09-21T13:50:56;3.42;;;0.80;;
22557;SDS011;11445;53.816;8.902;2022-09-21T13:53:28;4.25;;;0.73;;
22557;SDS011;11445;53.816;8.902;2022-09-21T13:56:00;4.95;;;1.00;;
22557;SDS011;11445;53.816;8.902;2022-09-21T14:01:02;3.70;;;1.08;;
22557;SDS011;11445;53.816;8.902;2022-09-21T14:03:33;1.85;;;0.57;;
22557;SDS011;11445;53.816;8.902;2022-09-21T14:06:06;5.65;;;0.65;;
22557;SDS011;11445;53.816;8.902;2022-09-21T14:08:38;2.72;;;0.70;;
22557;SDS011;11445;53.816;8.902;2022-09-21T14:11:14;3.60;;;0.68;;
22557;SDS011;11445;53.816;8.902;2022-09-21T14:13:44;3.08;;;0.47;;
22557;SDS011;11445;53.816;8.902;2022-09-21T14:22:36;2.38;;;0.60;;
22557;SDS011;11445;53.816;8.902;2022-09-21T14:25:24;6.75;;;1.00;;
22557;SDS011;11445;53.816;8.902;2022-09-21T14:27:57;2.05;;;0.63;;
22557;SDS011;11445;53.816;8.902;2022-09-21T14:30:29;5.32;;;1.13;;
22557;SDS011;11445;53.816;8.902;2022-09-21T14:33:09;6.72;;;0.77;;
22557;SDS011;11445;53.816;8.902;2022-09-21T14:35:44;2.40;;;0.70;;
22557;SDS011;11445;53.816;8.902;2022-09-21T14:38:16;5.47;;;0.63;;
22557;SDS011;11445;53.816;8.902;2022-09-21T14:40:48;2.75;;;0.65;;
22557;SDS011;11445;53.816;8.902;2022-09-21T14:43:18;5.07;;;0.75;;
22557;SDS011;11445;53.816;8.902;2022-09-21T14:45:58;2.50;;;0.70;;
22557;SDS011;11445;53.816;8.902;2022-09-21T14:48:43;5.05;;;0.70;;
22557;SDS011;11445;53.816;8.902;2022-09-21T14:51:19;4.03;;;0.95;;
22557;SDS011;11445;53.816;8.902;2022-09-21T14:56:52;6.32;;;0.63;;
22557;SDS011;11445;53.816;8.902;2022-09-21T14:59:33;4.78;;;1.00;;
22557;SDS011;11445;53.816;8.902;2022-09-21T15:02:15;2.63;;;0.65;;
22557;SDS011;11445;53.816;8.902;2022-09-21T15:04:52;3.58;;;0.77;;
22557;SDS011;11445;53.816;8.902;2022-09-21T15:07:36;4.70;;;0.90;;
22557;SDS011;11445;53.816;8.902;2022-09-21T15:10:29;5.15;;;0.70;;
22557;SDS011;11445;53.816;8.902;2022-09-21T15:19:10;4.40;;;0.82;;
22557;SDS011;11445;53.816;8.902;2022-09-21T15:21:41;5.20;;;0.73;;
22557;SDS011;11445;53.816;8.902;2022-09-21T15:24:12;3.92;;;0.88;;
22557;SDS011;11445;53.816;8.902;2022-09-21T15:26:46;2.67;;;0.70;;
22557;SDS011;11445;53.816;8.902;2022-09-21T15:29:19;2.97;;;0.75;;
22557;SDS011;11445;53.816;8.902;2022-09-21T15:31:50;4.60;;;1.05;;
22557;SDS011;11445;53.816;8.902;2022-09-21T15:34:18;4.15;;;0.90;;
22557;SDS011;11445;53.816;8.902;2022-09-21T15:36:45;4.65;;;0.80;;
22557;SDS011;11445;53.816;8.902;2022-09-21T15:39:21;4.57;;;0.80;;
22557;SDS011;11445;53.816;8.902;2022-09-21T15:41:55;5.80;;;0.80;;
22557;SDS011;11445;53.816;8.902;2022-09-21T15:44:42;4.20;;;0.68;;
22557;SDS011;11445;53.816;8.902;2022-09-21T15:47:13;3.80;;;0.80;;
22557;SDS011;11445;53.816;8.902;2022-09-21T15:49:44;2.63;;;0.60;;
22557;SDS011;11445;53.816;8.902;2022-09-21T15:52:13;4.50;;;0.60;;